Terminal Aerodrome Forecast
Issued by NWS

Home | Current Version | Previous Version | Text Only | Print | Product List | Glossary On
Versions: 1 2 3 4 5 6 7 8 9 10 11 12 13 14 15
000
FTUS43 KFGF 271900 AAA
TAFTVF
TAF AMD
KTVF 271942Z 2720/2818 24007KT P6SM BKN025
      TEMPO 2721/2724 SCT025
     FM280000 30008KT P6SM -SHSN BKN025
     FM280800 35010KT P6SM SCT030
      AMD LTD TO CLD VIS AND WIND=

USA.gov is the U.S. government's official web portal to all federal, state and local government web resources and services.